Tropical Cyclones
[Index]
Main Index Home Page Stock Weather Photos Extreme Storms Discussion Storm News and Storm Chasing Reports Tropical Cyclones / Hurricanes / Typhoons Weather Data and Links Wild Fires / Bushfires Weather Observation Techniques Weather Picture Catalogue Tornado Pictures and Reports Stock Video Footage and DVDs for sale
Season 2010-2011 Tropical Cyclone ANGGREK Track Map
Season 2010-2011 Summaries: [BoM-AU] [JTWC-AU] [JTWC-SIO] [JTWC-SPAC] [JTWC-SH]
<<- Previous TC | BoM 2010-2011 Season | Next TC ->>

click for intensity scale information  Lat/long Grid: Show Hide

 Date Labels: Show Hide

Bureau of Meteorology Tropical Cyclone Data

Name: ANGGREK
Number: 938 / 201011_01

29 Oct 2010 19:00 UTC to 05 Nov 2010 06:00 UTC

    date/time    lat    long    hPa   cat  kts
2010-10-29 19    7.4    96.5                            
2010-10-30 00    7.5    96.3   1002         25          
2010-10-30 06    7.7    96.0   1002         30          
2010-10-30 07    7.8    95.9                            
2010-10-30 11    7.8    95.9                            
2010-10-30 12    7.8    95.9   1002         30          
2010-10-30 18    8.0    96.0   1002         30          
2010-10-30 23    8.1    96.0                            
2010-10-31 00    8.1    96.0   1000         35          
2010-10-31 01    8.2    96.1                            
2010-10-31 06    8.5    96.4    998         35          
2010-10-31 07    8.6    96.5                            
2010-10-31 11    8.8    96.7                            
2010-10-31 12    8.8    96.7    998         35          
2010-10-31 18    9.0    97.1    998         35          
2010-10-31 19    9.0    97.2                            
2010-11-01 00    9.7    97.0    998         35          
2010-11-01 01    9.9    97.8                            
2010-11-01 06   10.4    98.0    998         35          
2010-11-01 06   10.5    98.0                            
2010-11-01 07   10.7    98.0                            
2010-11-01 11   11.2    98.3                            
2010-11-01 12   11.2    98.3    996         40          
2010-11-01 18   11.5    98.4    995    1    40          
2010-11-01 22   11.7    98.4                            
2010-11-02 00   11.8    98.3    997         35          
2010-11-02 06   12.2    98.1    998         35          
2010-11-02 06   12.2    98.1                            
2010-11-02 12   12.6    97.9    998         35          
2010-11-02 14   12.7    97.9                            
2010-11-02 18   13.2    97.8    998         35          
2010-11-02 20   13.6    97.7                            
2010-11-03 00   13.8    97.5    998         35          
2010-11-03 01   13.9    97.4                            
2010-11-03 06   14.3    97.2   1001         30          
2010-11-03 07   14.4    97.2                            
2010-11-03 12   14.5    96.5   1001         30          
2010-11-03 13   14.6    96.2                            
2010-11-03 18   14.8    95.9   1001         30          
2010-11-03 19   14.9    95.8                            
2010-11-03 23   15.0    95.5                            
2010-11-04 00   15.0    95.4   1003         30          
2010-11-04 00   15.0    95.4                            
2010-11-04 06   14.9    94.4   1004         30          
2010-11-04 07   14.9    94.1                            
2010-11-04 11   14.8    93.6                            
2010-11-04 12   14.8    93.6   1003         30          
2010-11-04 18   15.1    92.7   1003         30          
2010-11-04 22   15.3    92.0                            
2010-11-05 00   15.4    91.8   1003         30          
2010-11-05 00   15.4    91.8                            
2010-11-05 04   15.7    90.5                            
2010-11-05 06   15.8    90.3   1007         25          
Winds are 10-min average.

Tropical cyclone tracks developed by Michael Bath using data from the Bureau of Meteorology and Google Maps.


[Australian Severe Weather index] [Copyright Notice] [Email Contacts] [Search This Site] [Privacy Policy]
Document: tropical_cyclone_anggrek.htm Updated: 29 June 2017